Terminal Aerodrome Forecast
Issued by NWS

Home | Current Version | Previous Version | Text Only | Print | Product List | Glossary On
Versions: 1 2 3 4 5 6 7 8 9 10 11 12 13 14 15 16
000
FTUS45 KSLC 011140
TAFPVU
TAF
KPVU 011140Z 0112/0212 VRB06KT P6SM BKN140
     FM011700 14020G26KT P6SM SCT140
     FM020100 14011G18KT P6SM SKC
     FM020400 12008KT P6SM SKC
      AMD LTD TO CLD VIS AND WIND=

USA.gov is the U.S. government's official web portal to all federal, state and local government web resources and services.